KBMC

Brigham City Airport

Brigham City, Utah, USA
METAR KBMC 201515Z AUTO 34004KT 10SM OVC055 M10/M14 A3003 RMK AO1 T11051143
Observed Flight Rules
Feb-20 @ 15:15 UTC (5 hours ago) Visual Flight Rules
Wind Visibility Clouds
340° at 4 knots 10 miles
  • Overcast at 5,500' AGL
Temperatures Readings
Current -11°C / 12°F
Dewpoint -14°C / 7°F
Humidity 79%
Altimeter 30.03" Hg
Pressure 1017 hPa
Elevation 1288
METAR KBMC 201515Z AUTO 34004KT 10SM OVC055 M10/M14 A3003 RMK AO1 T11051143
Observed Flight Rules
Feb-20 @ 15:15 UTC
(5 hours ago)
VFR
Wind Visibility
340° at 4 knots 10 miles
Clouds
  • Overcast at 5,500' AGL
Temperature Dewpoint
-11°C / 12°F -14°C / 7°F
Humidity Altimeter Pressure
79% 30.03" Hg 1017 hPa